createdAt,value
2018-03-30T00:01:50.456Z,4.20
2018-03-30T00:04:16.756Z,4.20
2018-03-30T00:06:43.349Z,3.90
2018-03-30T00:09:09.587Z,3.80
2018-03-30T00:11:35.832Z,3.90
2018-03-30T00:14:02.066Z,3.90
2018-03-30T00:16:28.671Z,3.90
2018-03-30T00:18:54.913Z,4.00
2018-03-30T00:21:21.720Z,3.90
2018-03-30T00:23:47.933Z,3.80
2018-03-30T00:26:14.177Z,3.80
2018-03-30T00:28:40.945Z,3.80
2018-03-30T00:31:07.192Z,3.80
2018-03-30T00:33:33.413Z,3.80
2018-03-30T00:35:59.614Z,3.70
2018-03-30T00:38:25.869Z,3.50
2018-03-30T00:40:52.118Z,3.60
2018-03-30T00:43:18.389Z,3.60
2018-03-30T00:45:44.573Z,3.60
2018-03-30T00:48:10.801Z,3.60
2018-03-30T00:50:37.046Z,3.60
2018-03-30T00:53:03.662Z,3.60
2018-03-30T00:55:29.935Z,3.60
2018-03-30T00:57:57.020Z,3.60
2018-03-30T01:00:23.240Z,3.60
2018-03-30T01:02:49.496Z,3.60
2018-03-30T01:05:16.120Z,3.40
2018-03-30T01:07:42.340Z,3.50
2018-03-30T01:12:41.526Z,3.30
2018-03-30T01:15:07.740Z,3.40
2018-03-30T01:17:33.985Z,3.50
2018-03-30T01:20:00.238Z,3.40
2018-03-30T01:22:26.461Z,3.30
2018-03-30T01:24:52.701Z,3.20
2018-03-30T01:27:18.947Z,3.10
2018-03-30T01:29:45.563Z,3.30
2018-03-30T01:32:12.446Z,3.30
2018-03-30T01:34:39.203Z,3.40
2018-03-30T01:37:05.405Z,3.50
2018-03-30T01:39:32.012Z,3.70
2018-03-30T01:41:58.213Z,3.70
2018-03-30T01:44:24.454Z,3.80
2018-03-30T01:46:50.729Z,3.80
2018-03-30T01:49:17.000Z,3.80
2018-03-30T01:51:44.276Z,3.80
2018-03-30T01:54:10.520Z,4.00
2018-03-30T01:56:36.720Z,4.00
2018-03-30T01:59:02.993Z,4.20
2018-03-30T02:01:29.589Z,4.00
2018-03-30T02:03:55.802Z,4.10
2018-03-30T02:06:22.092Z,3.90
2018-03-30T02:08:48.320Z,3.90
2018-03-30T02:11:14.527Z,3.80
2018-03-30T02:13:41.121Z,3.90
2018-03-30T02:16:07.357Z,3.90
2018-03-30T02:18:33.586Z,4.00
2018-03-30T02:20:59.804Z,4.10
2018-03-30T02:23:26.016Z,4.10
2018-03-30T02:25:52.222Z,4.00
2018-03-30T02:28:18.450Z,4.10
2018-03-30T02:30:44.671Z,4.20
2018-03-30T02:33:10.877Z,4.30
2018-03-30T02:35:37.106Z,4.20
2018-03-30T02:38:03.339Z,4.10
2018-03-30T02:40:29.595Z,4.20
2018-03-30T02:42:55.881Z,4.20
2018-03-30T02:45:22.117Z,4.10
2018-03-30T02:47:48.342Z,4.10
2018-03-30T02:50:15.340Z,4.20
2018-03-30T02:52:41.584Z,4.20
2018-03-30T02:55:07.831Z,4.30
2018-03-30T02:57:34.124Z,4.20
2018-03-30T03:00:00.277Z,4.30
2018-03-30T03:02:26.516Z,4.10
2018-03-30T03:04:53.706Z,4.10
2018-03-30T03:07:20.275Z,4.20
2018-03-30T03:09:46.490Z,4.20
2018-03-30T03:12:12.742Z,4.20
2018-03-30T03:14:38.947Z,4.30
2018-03-30T03:17:05.173Z,4.30
2018-03-30T03:19:31.418Z,4.50
2018-03-30T03:21:57.634Z,4.50
2018-03-30T03:24:23.865Z,4.70
2018-03-30T03:26:50.121Z,4.90
2018-03-30T03:29:16.333Z,4.80
2018-03-30T03:31:42.566Z,4.70
2018-03-30T03:34:08.862Z,4.70
2018-03-30T03:36:35.057Z,4.60
2018-03-30T03:39:01.269Z,4.60
2018-03-30T03:41:27.493Z,4.60
2018-03-30T03:43:53.741Z,4.60
2018-03-30T03:46:19.952Z,4.60
2018-03-30T03:48:46.200Z,4.60
2018-03-30T03:51:13.398Z,4.60
2018-03-30T03:53:39.620Z,4.70
2018-03-30T03:56:05.842Z,4.70
2018-03-30T03:58:32.075Z,4.70
2018-03-30T04:00:58.327Z,4.70
2018-03-30T04:03:24.540Z,4.80
2018-03-30T04:05:50.774Z,4.90
2018-03-30T04:08:16.974Z,5.00
2018-03-30T04:10:43.215Z,5.00
2018-03-30T04:13:09.465Z,5.00
2018-03-30T04:15:35.663Z,4.90
2018-03-30T04:18:01.927Z,5.00
2018-03-30T04:20:28.152Z,5.00
2018-03-30T04:22:54.402Z,5.00
2018-03-30T04:25:20.611Z,4.90
2018-03-30T04:27:46.856Z,4.80
2018-03-30T04:30:13.072Z,4.70
2018-03-30T04:32:39.312Z,4.80
2018-03-30T04:35:05.537Z,5.00
2018-03-30T04:37:31.737Z,5.10
2018-03-30T04:39:57.974Z,5.10
2018-03-30T04:42:24.226Z,4.80
2018-03-30T04:44:50.481Z,4.70
2018-03-30T04:47:17.702Z,4.60
2018-03-30T04:49:43.951Z,4.60
2018-03-30T04:52:10.163Z,4.40
2018-03-30T04:54:36.404Z,4.20
2018-03-30T04:57:02.682Z,4.00
2018-03-30T04:59:28.903Z,4.00
2018-03-30T05:01:55.150Z,4.10
2018-03-30T05:04:21.376Z,4.30
2018-03-30T05:06:47.630Z,4.40
2018-03-30T05:09:13.839Z,4.30
2018-03-30T05:11:40.058Z,4.30
2018-03-30T05:14:06.315Z,4.70
2018-03-30T05:16:32.555Z,4.70
2018-03-30T05:18:58.773Z,4.60
2018-03-30T05:21:25.002Z,4.70
2018-03-30T05:23:51.221Z,4.60
2018-03-30T05:26:17.445Z,4.70
2018-03-30T05:28:43.693Z,4.80
2018-03-30T05:31:10.273Z,4.50
2018-03-30T05:33:36.500Z,4.50
2018-03-30T05:36:02.748Z,4.30
2018-03-30T05:38:28.962Z,4.30
2018-03-30T05:40:55.222Z,4.20
2018-03-30T05:43:21.449Z,4.30
2018-03-30T05:45:47.727Z,4.40
2018-03-30T05:48:14.328Z,4.40
2018-03-30T05:50:40.567Z,4.40
2018-03-30T05:53:07.153Z,4.50
2018-03-30T05:55:33.410Z,4.50
2018-03-30T05:57:59.648Z,4.60
2018-03-30T06:00:25.896Z,4.60
2018-03-30T06:02:53.150Z,4.80
2018-03-30T06:05:21.914Z,4.80
2018-03-30T06:07:48.143Z,4.90
2018-03-30T06:10:14.357Z,4.90
2018-03-30T06:12:40.579Z,4.90
2018-03-30T06:15:06.822Z,5.00
2018-03-30T06:17:33.070Z,5.20
2018-03-30T06:19:59.316Z,5.30
2018-03-30T06:22:25.597Z,5.40
2018-03-30T06:24:51.831Z,5.40
2018-03-30T06:27:18.067Z,5.30
2018-03-30T06:29:44.311Z,5.20
2018-03-30T06:32:10.964Z,5.10
2018-03-30T06:34:37.557Z,5.10
2018-03-30T06:37:03.812Z,5.10
2018-03-30T06:39:30.389Z,5.30
2018-03-30T06:41:56.628Z,5.30
2018-03-30T06:44:22.880Z,5.50
2018-03-30T06:46:49.119Z,5.80
2018-03-30T06:49:15.349Z,5.90
2018-03-30T06:51:42.177Z,5.90
2018-03-30T06:54:08.433Z,5.90
2018-03-30T06:56:34.674Z,5.90
2018-03-30T06:59:01.283Z,6.00
2018-03-30T07:01:28.102Z,6.00
2018-03-30T07:03:54.364Z,6.10
2018-03-30T07:06:20.610Z,6.40
2018-03-30T07:08:47.212Z,6.50
2018-03-30T07:11:13.421Z,6.50
2018-03-30T07:13:39.705Z,6.50
2018-03-30T07:16:05.957Z,6.50
2018-03-30T07:18:32.193Z,6.50
2018-03-30T07:20:58.439Z,6.50
2018-03-30T07:23:24.668Z,6.50
2018-03-30T07:25:51.694Z,6.10
2018-03-30T07:28:17.998Z,6.00
2018-03-30T07:30:44.590Z,6.30
2018-03-30T07:33:10.817Z,6.30
2018-03-30T07:35:37.054Z,6.60
2018-03-30T07:38:04.329Z,6.80
2018-03-30T07:40:30.597Z,6.70
2018-03-30T07:42:56.810Z,6.60
2018-03-30T07:45:23.055Z,6.60
2018-03-30T07:47:49.280Z,6.70
2018-03-30T07:50:15.497Z,7.00
2018-03-30T07:52:41.737Z,7.10
2018-03-30T07:55:07.968Z,7.10
2018-03-30T07:57:34.227Z,7.10
2018-03-30T08:00:00.483Z,7.30
2018-03-30T08:02:28.110Z,7.40
2018-03-30T08:04:54.378Z,7.40
2018-03-30T08:07:21.034Z,7.30
2018-03-30T08:09:47.274Z,7.30
2018-03-30T08:12:13.543Z,7.40
2018-03-30T08:14:39.810Z,7.60
2018-03-30T08:17:06.836Z,8.00
2018-03-30T08:19:33.075Z,8.00
2018-03-30T08:21:59.683Z,8.20
2018-03-30T08:24:25.950Z,8.20
2018-03-30T08:26:52.168Z,8.20
2018-03-30T08:29:20.480Z,8.20
2018-03-30T08:31:51.292Z,8.30
2018-03-30T08:34:18.841Z,8.70
2018-03-30T08:36:45.109Z,8.70
2018-03-30T08:39:11.370Z,8.30
2018-03-30T08:41:37.628Z,8.30
2018-03-30T08:44:04.485Z,8.70
2018-03-30T08:46:30.712Z,9.00
2018-03-30T08:48:56.961Z,9.30
2018-03-30T08:51:23.204Z,9.40
2018-03-30T08:53:49.440Z,9.50
2018-03-30T08:56:19.244Z,9.40
2018-03-30T08:58:48.374Z,9.60
2018-03-30T09:01:14.642Z,9.50
2018-03-30T09:03:40.915Z,9.30
2018-03-30T09:06:07.198Z,9.40
2018-03-30T09:08:33.416Z,9.50
2018-03-30T09:10:59.680Z,9.90
2018-03-30T09:13:25.943Z,10.10
2018-03-30T09:15:52.190Z,10.40
2018-03-30T09:18:19.443Z,10.40
2018-03-30T09:20:46.058Z,10.50
2018-03-30T09:23:12.303Z,10.50
2018-03-30T09:25:38.916Z,10.00
2018-03-30T09:28:05.222Z,10.00
2018-03-30T09:30:31.507Z,10.30
2018-03-30T09:32:57.726Z,10.50
2018-03-30T09:35:24.837Z,10.70
2018-03-30T09:37:51.070Z,10.90
2018-03-30T09:40:18.137Z,10.80
2018-03-30T09:42:44.399Z,10.50
2018-03-30T09:45:10.649Z,10.90
2018-03-30T09:47:36.902Z,11.00
2018-03-30T09:50:03.205Z,11.50
2018-03-30T09:52:29.489Z,11.80
2018-03-30T09:54:56.141Z,12.40
2018-03-30T09:57:22.768Z,12.10
2018-03-30T09:59:49.395Z,12.00
2018-03-30T10:02:15.665Z,12.00
2018-03-30T10:04:43.756Z,12.30
2018-03-30T10:07:10.027Z,12.70
2018-03-30T10:09:36.296Z,13.00
2018-03-30T10:12:02.561Z,13.30
2018-03-30T10:14:28.778Z,13.90
2018-03-30T10:16:55.061Z,14.40
2018-03-30T10:19:21.702Z,15.50
2018-03-30T10:21:47.990Z,15.50
2018-03-30T10:24:14.237Z,15.60
2018-03-30T10:26:40.513Z,16.30
2018-03-30T10:29:06.775Z,17.10
2018-03-30T10:31:33.005Z,18.00
2018-03-30T10:33:59.687Z,19.30
2018-03-30T10:36:25.906Z,19.40
2018-03-30T10:38:52.510Z,21.00
2018-03-30T10:41:18.769Z,21.10
2018-03-30T10:43:45.395Z,23.10
2018-03-30T10:46:11.987Z,24.30
2018-03-30T10:48:38.256Z,24.30
2018-03-30T10:51:04.506Z,25.40
2018-03-30T10:53:31.106Z,26.30
2018-03-30T10:55:57.468Z,26.30
2018-03-30T10:58:23.702Z,26.70
2018-03-30T11:00:50.922Z,26.90
2018-03-30T11:03:17.235Z,26.80
2018-03-30T11:05:43.468Z,27.10
2018-03-30T11:08:09.808Z,27.20
2018-03-30T11:10:36.090Z,26.90
2018-03-30T11:13:02.965Z,26.60
2018-03-30T11:15:29.239Z,26.30
2018-03-30T11:17:55.971Z,25.60
2018-03-30T11:20:22.280Z,25.60
2018-03-30T11:22:48.546Z,25.60
2018-03-30T11:25:14.862Z,25.90
2018-03-30T11:27:41.514Z,28.50
2018-03-30T11:30:08.124Z,29.20
2018-03-30T11:32:34.753Z,29.80
2018-03-30T11:35:01.931Z,29.80
2018-03-30T11:37:28.211Z,30.20
2018-03-30T11:39:55.830Z,30.20
2018-03-30T11:42:22.529Z,29.80
2018-03-30T11:44:48.769Z,29.80
2018-03-30T11:47:15.085Z,29.60
2018-03-30T11:49:42.840Z,29.40
2018-03-30T11:52:09.183Z,28.50
2018-03-30T11:54:35.422Z,27.80
2018-03-30T11:57:02.542Z,27.00
2018-03-30T11:59:28.801Z,25.90
2018-03-30T12:01:55.081Z,24.70
2018-03-30T12:04:21.351Z,23.30
2018-03-30T12:06:47.659Z,22.30
2018-03-30T12:09:13.987Z,21.90
2018-03-30T12:11:40.270Z,22.00
2018-03-30T12:14:06.497Z,21.40
2018-03-30T12:16:33.674Z,20.90
2018-03-30T12:18:59.959Z,20.40
2018-03-30T12:21:26.622Z,20.70
2018-03-30T12:23:52.913Z,20.70
2018-03-30T12:26:19.210Z,21.00
2018-03-30T12:28:46.325Z,21.10
2018-03-30T12:31:12.630Z,20.90
2018-03-30T12:33:38.869Z,20.60
2018-03-30T12:36:06.009Z,20.40
2018-03-30T12:38:32.516Z,20.40
2018-03-30T12:40:59.351Z,20.50
2018-03-30T12:43:25.940Z,20.70
2018-03-30T12:45:52.579Z,21.20
2018-03-30T12:48:19.217Z,21.30
2018-03-30T12:50:47.903Z,21.40
2018-03-30T12:53:15.602Z,21.30
2018-03-30T12:55:41.844Z,21.30
2018-03-30T12:58:09.052Z,21.10
2018-03-30T13:00:36.055Z,21.00
2018-03-30T13:03:03.011Z,21.00
2018-03-30T13:05:29.266Z,20.90
2018-03-30T13:07:56.466Z,20.70
2018-03-30T13:10:22.780Z,20.60
2018-03-30T13:12:49.110Z,20.90
2018-03-30T13:15:15.598Z,21.30
2018-03-30T13:17:42.214Z,21.60
2018-03-30T13:20:09.228Z,21.60
2018-03-30T13:22:35.548Z,21.60
2018-03-30T13:25:03.422Z,21.70
2018-03-30T13:27:30.550Z,22.30
2018-03-30T13:29:56.814Z,22.90
2018-03-30T13:32:24.675Z,23.40
2018-03-30T13:34:52.759Z,23.50
2018-03-30T13:37:19.051Z,23.60
2018-03-30T13:39:45.793Z,23.40
2018-03-30T13:42:12.068Z,23.20
2018-03-30T13:44:38.949Z,23.10
2018-03-30T13:47:05.579Z,22.80
2018-03-30T13:49:31.854Z,22.80
2018-03-30T13:52:24.705Z,22.80
2018-03-30T13:54:51.753Z,22.80
2018-03-30T13:57:29.864Z,23.00
2018-03-30T13:59:56.982Z,23.10
2018-03-30T14:02:30.264Z,23.20
2018-03-30T14:08:31.504Z,23.50
2018-03-30T14:11:00.167Z,23.50
2018-03-30T14:13:26.487Z,23.50
2018-03-30T14:15:58.878Z,23.30
2018-03-30T14:21:17.975Z,23.10
2018-03-30T14:23:44.991Z,23.10
2018-03-30T14:29:12.138Z,23.00
2018-03-30T14:31:45.276Z,23.00
2018-03-30T14:34:17.264Z,22.80
2018-03-30T14:37:00.469Z,23.00
2018-03-30T14:39:40.594Z,23.00
2018-03-30T14:42:24.767Z,22.90
2018-03-30T14:44:56.864Z,23.00
2018-03-30T14:47:24.407Z,22.40
2018-03-30T14:49:54.328Z,22.40
2018-03-30T14:52:45.290Z,22.00
2018-03-30T14:55:22.259Z,21.60
2018-03-30T14:57:55.335Z,21.50
2018-03-30T15:00:27.421Z,21.40
2018-03-30T15:03:10.597Z,21.00
2018-03-30T15:05:45.730Z,21.00
2018-03-30T15:11:35.578Z,20.30
2018-03-30T15:14:16.774Z,20.10
2018-03-30T15:16:50.951Z,19.90
2018-03-30T15:19:28.039Z,19.50
2018-03-30T15:22:12.975Z,19.20
2018-03-30T15:24:52.072Z,18.80
2018-03-30T15:27:22.345Z,18.70
2018-03-30T15:30:01.121Z,18.50
2018-03-30T15:32:28.241Z,18.40
2018-03-30T15:34:54.552Z,18.30
2018-03-30T15:37:21.904Z,18.20
2018-03-30T15:39:53.807Z,18.20
2018-03-30T15:42:20.939Z,18.40
2018-03-30T15:44:47.224Z,18.60
2018-03-30T15:47:15.816Z,19.00
2018-03-30T15:49:42.859Z,19.00
2018-03-30T15:52:12.856Z,19.10
2018-03-30T15:54:39.162Z,19.10
2018-03-30T15:57:05.494Z,18.80
2018-03-30T15:59:31.852Z,18.60
2018-03-30T16:01:58.194Z,18.70
2018-03-30T16:04:24.485Z,18.60
2018-03-30T16:06:50.780Z,18.40
2018-03-30T16:09:19.093Z,18.20
2018-03-30T16:11:45.396Z,18.00
2018-03-30T16:14:12.739Z,17.90
2018-03-30T16:16:39.010Z,17.80
2018-03-30T16:19:05.082Z,17.80
2018-03-30T16:21:31.124Z,17.50
2018-03-30T16:23:57.164Z,17.40
2018-03-30T16:26:23.303Z,17.30
2018-03-30T16:28:49.383Z,17.30
2018-03-30T16:31:15.485Z,17.10
2018-03-30T16:33:41.875Z,17.10
2018-03-30T16:36:07.940Z,17.10
2018-03-30T16:38:34.408Z,17.10
2018-03-30T16:41:00.437Z,17.10
2018-03-30T16:43:26.553Z,17.00
2018-03-30T16:45:52.650Z,16.90
2018-03-30T16:48:19.027Z,16.90
2018-03-30T16:50:45.085Z,16.80
2018-03-30T16:53:11.159Z,16.80
2018-03-30T16:55:37.234Z,16.70
2018-03-30T16:58:04.250Z,16.80
2018-03-30T17:00:30.318Z,16.70
2018-03-30T17:02:56.742Z,16.50
2018-03-30T17:05:23.164Z,16.50
2018-03-30T17:07:49.213Z,16.50
2018-03-30T17:10:15.273Z,16.60
2018-03-30T17:12:41.416Z,16.50
2018-03-30T17:15:07.482Z,16.50
2018-03-30T17:17:33.598Z,16.50
2018-03-30T17:19:59.626Z,16.50
2018-03-30T17:22:26.009Z,16.20
2018-03-30T17:24:52.098Z,16.20
2018-03-30T17:27:18.115Z,16.00
2018-03-30T17:29:44.558Z,16.00
2018-03-30T17:32:10.635Z,16.00
2018-03-30T17:34:36.753Z,15.90
2018-03-30T17:37:03.687Z,15.80
2018-03-30T17:39:29.827Z,15.80
2018-03-30T17:41:55.862Z,15.80
2018-03-30T17:44:21.926Z,15.90
2018-03-30T17:46:48.009Z,15.70
2018-03-30T17:49:14.051Z,15.60
2018-03-30T17:51:40.134Z,15.50
2018-03-30T17:54:06.220Z,15.50
2018-03-30T17:56:32.293Z,15.60
2018-03-30T17:58:58.363Z,15.50
2018-03-30T18:01:24.451Z,15.40
2018-03-30T18:03:50.490Z,15.30
2018-03-30T18:06:16.961Z,15.40
2018-03-30T18:08:43.066Z,15.40
2018-03-30T18:11:09.516Z,15.30
2018-03-30T18:13:35.597Z,15.30
2018-03-30T18:16:02.082Z,15.10
2018-03-30T18:18:28.166Z,15.10
2018-03-30T18:20:54.241Z,15.10
2018-03-30T18:23:20.328Z,15.10
2018-03-30T18:25:46.771Z,14.90
2018-03-30T18:28:12.887Z,14.90
2018-03-30T18:30:38.972Z,14.90
2018-03-30T18:33:05.078Z,14.80
2018-03-30T18:35:31.115Z,14.80
2018-03-30T18:37:57.224Z,14.90
2018-03-30T18:40:23.288Z,14.90
2018-03-30T18:42:49.355Z,15.00
2018-03-30T18:45:16.333Z,15.00
2018-03-30T18:47:42.414Z,14.80
2018-03-30T18:50:08.519Z,14.60
2018-03-30T18:52:34.629Z,14.60
2018-03-30T18:55:00.675Z,14.60
2018-03-30T18:57:27.099Z,14.50
2018-03-30T18:59:53.572Z,14.60
2018-03-30T19:02:19.633Z,14.60
2018-03-30T19:04:45.730Z,14.60
2018-03-30T19:07:11.813Z,14.60
2018-03-30T19:09:38.264Z,14.60
2018-03-30T19:12:04.370Z,14.60
2018-03-30T19:14:30.470Z,14.50
2018-03-30T19:16:56.596Z,14.20
2018-03-30T19:19:22.656Z,14.10
2018-03-30T19:21:48.761Z,14.00
2018-03-30T19:24:15.268Z,13.60
2018-03-30T19:26:41.336Z,13.60
2018-03-30T19:29:08.050Z,13.60
2018-03-30T19:31:34.103Z,13.40
2018-03-30T19:34:00.579Z,12.80
2018-03-30T19:36:26.705Z,12.70
2018-03-30T19:38:52.761Z,12.50
2018-03-30T19:41:18.845Z,12.40
2018-03-30T19:43:44.914Z,12.10
2018-03-30T19:46:11.014Z,12.10
2018-03-30T19:48:37.095Z,12.00
2018-03-30T19:51:03.256Z,12.10
2018-03-30T19:53:29.353Z,12.00
2018-03-30T19:55:55.447Z,11.80
2018-03-30T19:58:23.610Z,11.70
2018-03-30T20:00:49.707Z,11.70
2018-03-30T20:03:16.356Z,11.40
2018-03-30T20:05:42.524Z,11.00
2018-03-30T20:08:09.006Z,10.60
2018-03-30T20:10:35.122Z,10.60
2018-03-30T20:13:01.247Z,10.50
2018-03-30T20:15:27.320Z,10.40
2018-03-30T20:17:53.426Z,10.40
2018-03-30T20:20:19.484Z,10.60
2018-03-30T20:22:45.886Z,10.70
2018-03-30T20:25:29.317Z,10.70
2018-03-30T20:27:55.449Z,10.60
2018-03-30T20:30:21.520Z,10.60
2018-03-30T20:32:47.650Z,10.70
2018-03-30T20:35:13.755Z,10.30
2018-03-30T20:37:39.843Z,10.30
2018-03-30T20:40:05.944Z,10.40
2018-03-30T20:42:32.021Z,10.40
2018-03-30T20:44:58.064Z,10.30
2018-03-30T20:47:24.176Z,10.40
2018-03-30T20:49:50.330Z,10.40
2018-03-30T20:52:16.407Z,10.50
2018-03-30T20:54:42.919Z,10.10
2018-03-30T20:57:08.991Z,10.10
2018-03-30T20:59:35.033Z,9.80
2018-03-30T21:02:01.131Z,9.60
2018-03-30T21:04:27.198Z,9.50
2018-03-30T21:06:53.264Z,9.50
2018-03-30T21:09:19.372Z,9.50
2018-03-30T21:11:45.407Z,9.40
2018-03-30T21:14:11.430Z,9.40
2018-03-30T21:16:37.534Z,9.10
2018-03-30T21:19:03.566Z,9.00
2018-03-30T21:21:30.529Z,9.00
2018-03-30T21:23:57.919Z,9.20
2018-03-30T21:26:23.960Z,9.20
2018-03-30T21:28:50.008Z,9.20
2018-03-30T21:31:16.018Z,9.10
2018-03-30T21:33:42.076Z,8.90
2018-03-30T21:36:08.112Z,8.70
2018-03-30T21:38:34.145Z,8.80
2018-03-30T21:41:00.224Z,8.70
2018-03-30T21:43:26.217Z,8.50
2018-03-30T21:45:52.267Z,8.60
2018-03-30T21:48:18.298Z,8.70
2018-03-30T21:50:44.418Z,8.60
2018-03-30T21:53:10.440Z,8.60
2018-03-30T21:55:36.488Z,8.60
2018-03-30T21:58:02.565Z,8.70
2018-03-30T22:00:28.585Z,8.80
2018-03-30T22:02:54.678Z,9.00
2018-03-30T22:05:21.077Z,8.80
2018-03-30T22:07:47.088Z,8.80
2018-03-30T22:10:13.144Z,8.70
2018-03-30T22:12:39.538Z,8.30
2018-03-30T22:15:05.612Z,8.30
2018-03-30T22:17:32.075Z,8.20
2018-03-30T22:19:58.121Z,8.20
2018-03-30T22:22:24.181Z,8.10
2018-03-30T22:24:50.232Z,7.90
2018-03-30T22:27:16.278Z,7.70
2018-03-30T22:29:42.305Z,7.60
2018-03-30T22:32:08.340Z,7.80
2018-03-30T22:34:34.411Z,7.80
2018-03-30T22:37:00.825Z,7.70
2018-03-30T22:39:26.844Z,7.70
2018-03-30T22:41:52.905Z,7.80
2018-03-30T22:44:18.955Z,7.60
2018-03-30T22:46:44.974Z,7.60
2018-03-30T22:49:11.030Z,7.60
2018-03-30T22:51:37.083Z,7.80
2018-03-30T22:54:03.085Z,7.80
2018-03-30T22:56:29.155Z,7.60
2018-03-30T22:58:55.198Z,7.60
2018-03-30T23:01:21.233Z,7.90
2018-03-30T23:03:47.267Z,7.90
2018-03-30T23:06:13.260Z,7.60
2018-03-30T23:08:39.294Z,7.60
2018-03-30T23:11:05.407Z,7.60
2018-03-30T23:13:31.412Z,7.70
2018-03-30T23:15:57.452Z,7.60
2018-03-30T23:18:23.563Z,7.50
2018-03-30T23:20:49.593Z,7.60
2018-03-30T23:23:15.588Z,7.70
2018-03-30T23:25:41.596Z,7.70
2018-03-30T23:28:07.646Z,8.10
2018-03-30T23:30:33.693Z,8.10
2018-03-30T23:32:59.755Z,8.10
2018-03-30T23:35:25.774Z,8.10
2018-03-30T23:37:51.780Z,8.00
2018-03-30T23:40:17.816Z,7.60
2018-03-30T23:42:43.858Z,7.60
2018-03-30T23:45:09.885Z,7.60
2018-03-30T23:47:35.907Z,7.70
2018-03-30T23:50:02.382Z,7.70
2018-03-30T23:52:28.413Z,7.70
2018-03-30T23:54:54.435Z,7.80
2018-03-30T23:57:20.485Z,7.60
2018-03-30T23:59:46.511Z,7.60
